Terminal Aerodrome Forecast
Issued by NWS Twin Cities, MN

Home | Current Version | Previous Version | Graphics & Text | Print | Product List | Glossary On
Versions: 1 2 3 4 5 6 7 8 9 10 11 12 13 14 15 16 17 18 19 20 21 22 23 24 25 26 27
317
FTUS43 KMPX 022326
TAFMSP
TAF
KMSP 022326Z 0300/0406 02022G32KT 3/4SM -SN BLSN VV008
     FM030100 02024G32KT 1SM -SN BLSN OVC012
     FM030300 01022G30KT 1 1/2SM -SN BLSN OVC012
     FM031200 34018G28KT 3SM BLSN OVC015
     FM031800 32016G24KT 6SM BLSN BKN020
     FM032100 31014G22KT P6SM SCT025=

USA.gov is the U.S. government's official web portal to all federal, state and local government web resources and services.